Latest Weather Observations for Mareeba

IDQ60801

Issued at 8:02 pm EST Sunday 4 December 2016 (issued every 30 minutes, with the page automatically refreshed every 10 minutes)

About weather observations | Map of weather stations | Latest weather observations for QLD | Other Formats
Station Details ID: 031210 Name: MAREEBA AIRPORT Lat: -17.07 Lon: 145.43 Height: 471.93 m
Data from the previous 72 hours. | See also: Recent months at Mareeba
Date/Time
EST
Temp
°C
App
Temp
°C
Dew
Point
°C
Rel
Hum
%
Delta-T
°C
Wind Press
QNH
hPa
Press
MSL
hPa
Rain since
9am
mm
Dir  Spd
km/h
Gust
km/h
Spd
kts
Gust
kts
04/08:00pm 23.7 23.7 13.6 53 6.0 E 6 9 3 5 1014.9 - 0.0
04/07:30pm 25.5 24.5 13.4 47 7.2 E 11 19 6 10 1014.7 - 0.0
04/07:00pm 25.0 25.5 13.9 50 6.7 NE 4 13 2 7 1014.4 - 0.0
04/06:30pm 26.4 25.3 13.2 44 7.9 NE 11 19 6 10 1013.9 - 0.0
04/06:00pm 28.4 26.1 10.6 33 10.3 ENE 13 20 7 11 1013.6 1010.3 0.0
04/05:30pm 29.3 26.5 9.9 30 11.1 NE 15 26 8 14 1013.2 - 0.0
04/05:00pm 30.6 26.6 6.5 22 13.2 ENE 17 24 9 13 1012.7 - 0.0
04/04:30pm 31.2 26.7 6.3 21 13.6 NE 19 32 10 17 1012.6 - 0.0
04/04:00pm 31.7 27.2 6.0 20 14.0 NNE 19 30 10 16 1012.5 - 0.0
04/03:30pm 32.5 28.9 6.7 20 14.3 E 15 24 8 13 1012.7 - 0.0
04/03:00pm 31.7 27.6 6.0 20 14.0 NNE 17 28 9 15 1013.1 1009.8 0.0
04/02:30pm 31.5 27.8 10.2 27 12.4 ENE 20 32 11 17 1013.6 - 0.0
04/02:00pm 31.6 28.3 10.9 28 12.2 E 19 28 10 15 1013.8 - 0.0
04/01:30pm 31.3 27.3 8.9 25 12.8 E 20 33 11 18 1014.3 - 0.0
04/01:00pm 30.8 26.9 10.7 29 11.8 E 22 37 12 20 1014.8 - 0.0
04/12:30pm 31.1 27.3 12.5 32 11.2 ESE 24 43 13 23 1015.2 - 0.0
04/12:03pm 30.6 25.0 11.5 30 11.3 ESE 32 50 17 27 1015.6 - 0.0
04/12:00pm 31.3 25.7 12.2 31 11.5 ESE 33 50 18 27 1015.6 1012.3 0.0
04/11:57am 31.1 25.6 12.0 31 11.4 SE 32 50 17 27 1015.6 - 0.0
04/11:30am 30.2 25.5 10.7 30 11.4 E 26 39 14 21 1016.0 - 0.0
04/11:00am 29.6 25.1 12.5 35 10.2 E 28 44 15 24 1016.2 - 0.0
04/10:30am 29.7 25.6 13.9 38 9.7 ESE 28 37 15 20 1016.4 - 0.0
04/10:00am 28.9 25.7 14.3 40 9.0 E 24 37 13 20 1016.7 - 0.0
04/09:30am 27.9 25.7 14.9 45 8.0 E 20 35 11 19 1016.7 - 0.0
04/09:00am 27.0 24.1 15.1 48 7.3 E 24 37 13 20 1016.7 1013.5 0.0
04/08:30am 26.3 24.7 16.0 53 6.4 E 19 26 10 14 1016.8 - 0.0
04/08:00am 25.8 25.4 17.2 59 5.5 SE 15 20 8 11 1016.7 - 0.0
04/07:30am 24.4 25.5 18.1 68 4.0 E 9 13 5 7 1016.8 - 0.0
04/07:00am 22.8 23.6 18.1 75 3.0 SSE 11 15 6 8 1016.6 - 0.0
04/06:30am 21.2 21.9 18.0 82 2.0 SSE 11 15 6 8 1016.4 - 0.0
04/06:00am 19.7 20.7 17.8 89 1.2 SSE 9 11 5 6 1016.1 1012.8 0.0
04/05:30am 19.4 20.3 17.5 89 1.2 SSE 9 11 5 6 1015.8 - 0.0
04/05:00am 19.6 20.6 17.7 89 1.2 S 9 13 5 7 1015.5 - 0.0
04/04:30am 19.6 21.9 17.6 88 1.3 SSE 2 7 1 4 1015.2 - 0.0
04/04:00am 20.0 20.7 18.0 88 1.3 SSE 11 15 6 8 1014.9 - 0.0
04/03:30am 20.0 20.3 18.0 88 1.3 SSE 13 17 7 9 1014.6 - 0.0
04/03:00am 20.1 20.8 18.0 88 1.3 SSE 11 15 6 8 1014.5 1011.3 0.0
04/02:30am 20.0 21.0 17.8 87 1.4 SSE 9 13 5 7 1014.5 - 0.0
04/02:00am 20.1 20.3 17.7 86 1.5 S 13 15 7 8 1014.7 - 0.0
04/01:30am 20.2 20.8 17.8 86 1.5 S 11 15 6 8 1014.9 - 0.0
04/01:00am 20.3 20.9 17.7 85 1.6 SSE 11 13 6 7 1015.1 - 0.0
04/12:30am 20.5 21.2 17.9 85 1.6 S 11 15 6 8 1015.4 - 0.0
04/12:00am 20.6 21.2 17.6 83 1.9 S 11 15 6 8 1015.7 1012.4 0.0
 
Date/Time
EST
Temp
°C
App
Temp
°C
Dew
Point
°C
Rel
Hum
%
Delta-T
°C
Wind Press
QNH
hPa
Press
MSL
hPa
Rain since
9am
mm
Dir  Spd
km/h
Gust
km/h
Spd
kts
Gust
kts
03/11:30pm 20.5 20.0 16.9 80 2.2 S 15 17 8 9 1016.0 - 0.0
03/11:00pm 20.4 22.6 16.4 78 2.5 CALM 0 0 0 0 1016.0 - 0.0
03/10:30pm 20.1 21.4 16.1 78 2.4 ESE 4 9 2 5 1016.0 - 0.0
03/10:00pm 20.4 22.4 16.0 76 2.7 CALM 0 0 0 0 1015.9 - 0.0
03/09:30pm 20.6 22.6 16.0 75 2.8 CALM 0 4 0 2 1015.7 - 0.0
03/09:00pm 22.4 24.7 16.7 70 3.5 CALM 0 0 0 0 1015.5 1012.2 0.0
03/08:30pm 23.0 25.1 16.3 66 4.2 CALM 0 0 0 0 1015.2 - 0.0
03/08:00pm 23.6 25.3 15.1 59 5.2 CALM 0 0 0 0 1015.1 - 0.0
03/07:30pm 24.9 25.6 14.4 52 6.4 NE 4 7 2 4 1014.9 - 0.0
03/07:00pm 26.1 25.9 14.6 49 7.0 NE 9 15 5 8 1014.5 - 0.0
03/06:30pm 28.4 25.8 7.6 27 11.4 NE 11 17 6 9 1014.2 - 0.0
03/06:00pm 29.8 26.5 6.5 23 12.7 NE 13 20 7 11 1013.9 1010.6 0.0
03/05:30pm 31.0 27.4 6.8 22 13.3 NE 15 22 8 12 1013.6 - 0.0
03/05:00pm 31.5 28.0 7.2 22 13.5 ENE 15 28 8 15 1013.3 - 0.0
03/04:30pm 32.2 28.0 5.7 19 14.4 ENE 17 30 9 16 1013.1 - 0.0
03/04:00pm 32.9 29.0 7.0 20 14.4 E 17 30 9 16 1012.9 - 0.0
03/03:30pm 32.2 27.8 4.9 18 14.7 ENE 17 30 9 16 1012.8 - 0.0
03/03:00pm 33.3 30.0 6.6 19 14.8 ENE 13 22 7 12 1012.9 1009.7 0.0
03/02:30pm 35.1 30.8 7.2 18 15.8 ENE 19 26 10 14 1013.1 - 0.0
03/02:00pm 34.6 29.9 5.1 16 16.1 E 19 28 10 15 1013.4 - 0.0
03/01:30pm 34.1 29.5 3.8 15 16.2 E 17 30 9 16 1013.7 - 0.0
03/01:00pm 33.9 28.9 1.6 13 16.6 ENE 17 28 9 15 1014.0 - 0.0
03/12:30pm 34.2 28.7 0.8 12 17.0 E 19 32 10 17 1014.4 - 0.0
03/12:00pm 34.2 29.3 1.9 13 16.7 NE 17 28 9 15 1014.7 1011.5 0.0
03/11:30am 33.9 29.7 1.6 13 16.6 ENE 13 20 7 11 1015.1 - 0.0
03/11:00am 33.4 29.1 1.3 13 16.4 ENE 13 26 7 14 1015.2 - 0.0
03/10:30am 32.1 29.8 5.6 19 14.4 ESE 7 19 4 10 1015.7 - 0.0
03/10:00am 30.8 28.8 8.5 25 12.6 NNE 9 15 5 8 1016.0 - 0.0
03/09:30am 29.3 27.2 8.4 27 11.7 NE 9 15 5 8 1016.1 - 0.0
03/09:00am 28.5 27.3 9.7 31 10.7 N 6 11 3 6 1016.2 1012.9 0.0
03/08:30am 27.4 26.9 9.3 32 10.2 WSW 2 7 1 4 1016.2 - 0.0
03/08:00am 25.8 25.3 10.8 39 8.6 SSE 4 7 2 4 1016.3 - 0.0
03/07:30am 23.9 23.4 12.5 49 6.7 S 7 11 4 6 1016.1 - 0.0
03/07:00am 22.0 21.5 12.8 56 5.4 SE 7 11 4 6 1015.7 - 0.0
03/06:30am 20.0 19.1 12.5 62 4.3 SE 9 11 5 6 1015.2 - 0.0
03/06:00am 18.5 17.5 12.3 67 3.5 SE 9 11 5 6 1014.9 1011.7 0.0
03/05:30am 17.8 16.8 12.3 70 3.1 SSE 9 15 5 8 1014.7 - 0.0
03/05:00am 18.2 18.0 13.1 72 2.9 SE 6 9 3 5 1014.7 - 0.0
03/04:30am 18.0 19.0 13.3 74 2.7 CALM 0 7 0 4 1014.5 - 0.0
03/04:00am 18.2 18.4 14.1 77 2.4 SE 6 9 3 5 1014.2 - 0.0
03/03:30am 18.6 18.8 14.7 78 2.3 SE 7 9 4 5 1014.1 - 0.0
03/03:00am 18.9 18.7 15.6 81 2.0 SE 11 13 6 7 1014.0 1010.7 0.0
03/02:30am 19.4 19.9 16.6 84 1.7 SSE 9 11 5 6 1014.0 - 0.0
03/02:00am 20.5 22.2 18.6 89 1.2 S 7 9 4 5 1013.9 - 0.0
03/01:30am 20.4 23.6 18.9 91 1.0 CALM 0 0 0 0 1014.0 - 0.0
03/01:00am 19.4 22.0 17.5 89 1.2 CALM 0 0 0 0 1014.6 - 0.0
03/12:30am 19.8 22.7 18.3 91 0.9 CALM 0 0 0 0 1015.0 - 0.0
03/12:00am 20.3 23.6 19.1 93 0.8 CALM 0 0 0 0 1015.4 1012.1 0.0
 
Date/Time
EST
Temp
°C
App
Temp
°C
Dew
Point
°C
Rel
Hum
%
Delta-T
°C
Wind Press
QNH
hPa
Press
MSL
hPa
Rain since
9am
mm
Dir  Spd
km/h
Gust
km/h
Spd
kts
Gust
kts
02/11:30pm 20.3 23.2 18.2 88 1.3 CALM 0 0 0 0 1015.9 - 0.0
02/11:00pm 20.8 23.9 18.7 88 1.3 CALM 0 0 0 0 1015.9 - 0.0
02/10:30pm 21.2 24.4 18.8 86 1.5 CALM 0 0 0 0 1016.1 - 0.0
02/10:00pm 21.2 24.2 18.4 84 1.8 CALM 0 0 0 0 1016.1 - 0.0
02/09:30pm 22.6 26.0 19.4 82 2.1 CALM 0 0 0 0 1015.7 - 0.0
02/09:00pm 23.1 26.3 19.7 81 2.2 NNE 2 9 1 5 1015.7 1012.4 0.0
02/08:30pm 23.4 25.6 19.3 78 2.7 NNE 6 9 3 5 1015.6 - 0.0
02/08:00pm 24.2 26.8 18.4 70 3.7 N 2 7 1 4 1015.5 - 0.0
02/07:30pm 25.0 26.6 17.0 61 5.1 N 4 13 2 7 1015.1 - 0.0
02/07:00pm 26.0 26.7 16.0 54 6.2 N 7 13 4 7 1014.6 - 0.0
02/06:30pm 27.6 27.0 14.6 45 8.0 NNE 11 17 6 9 1014.0 - 0.0
02/06:00pm 29.3 27.2 12.3 35 10.1 NNE 15 26 8 14 1013.4 1010.1 0.0
02/05:30pm 31.2 28.5 11.6 30 11.7 NE 17 28 9 15 1012.8 - 0.0
02/05:00pm 31.7 29.2 13.5 33 11.2 NE 19 32 10 17 1012.3 - 0.0
02/04:30pm 32.9 30.0 13.0 30 12.2 ENE 20 37 11 20 1012.2 - 0.0
02/04:00pm 35.0 31.1 9.4 21 15.0 E 20 33 11 18 1012.0 - 0.0
02/03:30pm 35.7 31.9 6.0 16 16.5 SE 15 30 8 16 1012.0 - 0.0
02/03:00pm 36.4 32.8 6.6 16 16.8 E 15 22 8 12 1012.0 1008.7 0.0
02/02:30pm 36.1 31.6 6.3 16 16.7 E 19 33 10 18 1012.3 - 0.0
02/02:00pm 35.9 33.7 7.9 18 16.1 N 9 20 5 11 1012.5 - 0.0
02/01:30pm 34.9 32.3 7.9 19 15.4 NNE 11 22 6 12 1012.9 - 0.0
02/01:00pm 34.6 31.8 6.8 18 15.6 ENE 11 20 6 11 1013.5 - 0.0
02/12:30pm 34.6 32.3 7.6 19 15.3 SW 9 20 5 11 1013.8 - 0.0
02/12:00pm 33.9 31.9 7.0 19 15.1 NNW 7 17 4 9 1014.2 1010.9 0.0
02/11:30am 33.0 30.8 7.8 21 14.2 NW 9 17 5 9 1014.5 - 0.0
02/11:00am 32.5 30.2 7.4 21 14.1 NNE 9 17 5 9 1014.7 - 0.0
02/10:30am 31.0 29.1 7.5 23 13.1 N 7 13 4 7 1015.2 - 0.0
02/10:00am 30.1 28.3 7.9 25 12.4 NNE 7 13 4 7 1015.5 - 0.0
02/09:30am 28.8 27.3 9.0 29 11.2 N 7 11 4 6 1015.7 - 0.0
02/09:00am 27.9 26.5 8.7 30 10.7 N 6 13 3 7 1016.0 1012.7 0.6
02/08:30am 26.8 25.4 8.7 32 10.1 N 6 11 3 6 1016.1 - 0.4
02/08:00am 25.9 26.0 10.1 37 9.0 CALM 0 0 0 0 1015.9 - 0.4
02/07:30am 23.9 23.8 13.2 51 6.3 SSE 6 7 3 4 1015.4 - 0.4
02/07:00am 21.8 21.2 12.4 55 5.4 SSE 7 9 4 5 1015.1 - 0.4
02/06:30am 20.2 20.4 12.9 63 4.2 SE 4 7 2 4 1014.8 - 0.4
02/06:00am 18.7 18.5 13.1 70 3.2 SE 6 11 3 6 1014.5 1011.3 0.4
02/05:30am 18.2 17.8 12.9 71 3.0 ESE 7 11 4 6 1013.9 - 0.4
02/05:00am 18.1 17.9 11.9 67 3.5 ESE 4 9 2 5 1013.8 - 0.4
02/04:30am 18.2 17.7 12.6 70 3.2 SE 7 9 4 5 1013.6 - 0.4
02/04:00am 18.2 17.8 13.1 72 2.9 SE 7 9 4 5 1013.3 - 0.4
02/03:30am 18.5 18.2 13.4 72 3.0 SE 7 9 4 5 1013.3 - 0.4
02/03:00am 18.6 18.6 13.5 72 3.0 SE 6 9 3 5 1013.2 1009.9 0.4
02/02:30am 18.8 18.5 13.4 71 3.1 ESE 7 9 4 5 1013.1 - 0.4
02/02:00am 18.9 18.5 12.9 68 3.5 ESE 7 9 4 5 1013.2 - 0.4
02/01:30am 18.7 17.6 12.0 65 3.8 SE 9 11 5 6 1013.4 - 0.4
02/01:00am 19.2 18.8 12.5 65 3.8 SE 6 9 3 5 1013.7 - 0.4
02/12:30am 19.2 18.8 14.0 72 3.1 SE 9 13 5 7 1014.1 - 0.4
02/12:00am 19.2 19.6 15.3 78 2.3 ESE 7 11 4 6 1014.5 1011.3 0.4
 
Date/Time
EST
Temp
°C
App
Temp
°C
Dew
Point
°C
Rel
Hum
%
Delta-T
°C
Wind Press
QNH
hPa
Press
MSL
hPa
Rain since
9am
mm
Dir  Spd
km/h
Gust
km/h
Spd
kts
Gust
kts
01/11:30pm 19.8 20.5 15.7 77 2.5 SE 6 9 3 5 1014.3 - 0.4
01/11:00pm 19.8 20.6 16.4 81 2.1 SE 7 9 4 5 1014.4 - 0.4
01/10:30pm 19.8 20.6 16.4 81 2.1 SE 7 9 4 5 1014.6 - 0.4
01/10:00pm 20.3 21.2 16.7 80 2.2 ESE 7 9 4 5 1014.5 - 0.4
01/09:30pm 21.0 23.3 16.8 77 2.6 CALM 0 0 0 0 1014.4 - 0.4
01/09:00pm 21.4 23.6 16.6 74 3.0 CALM 0 0 0 0 1014.2 1010.9 0.4
01/08:30pm 23.2 24.4 13.7 55 5.7 CALM 0 0 0 0 1013.9 - 0.4

Other Formats:

Comma delimited format used in spreadsheet applications
http://www.bom.gov.au/fwo/IDQ60801/IDQ60801.95286.axf

JavaScript Object Notation format (JSON) in row-major order
http://www.bom.gov.au/fwo/IDQ60801/IDQ60801.95286.json